Time;durP1;ratioP1;P1;durP2;ratioP2;P2;SDS_P1;SDS_P2;PMS_P1;PMS_P2;Temp;Humidity;BMP_temperature;BMP_pressure;BME280_temperature;BME280_humidity;BME280_pressure;Samples;Min_cycle;Max_cycle;Signal;HPM_P1;HPM_P2
2022/05/11 00:02:00;;;;;;;6.80;2.78;;;;;;;13.75;75.63;101413.63;7381657;19;20289;-70
2022/05/11 00:04:30;;;;;;;7.70;2.90;;;;;;;13.76;76.38;101414.50;7378409;19;20305;-71
2022/05/11 00:07:03;;;;;;;11.82;3.30;;;;;;;13.77;76.36;101410.13;7378120;19;20473;-70
2022/05/11 00:09:37;;;;;;;7.15;3.10;;;;;;;13.76;76.57;101409.25;7378221;19;20018;-69
2022/05/11 00:12:11;;;;;;;11.73;3.97;;;;;;;13.75;76.93;101410.09;7377401;19;20043;-70
2022/05/11 00:14:42;;;;;;;9.25;2.80;;;;;;;13.75;76.45;101408.34;7372172;19;20032;-70
2022/05/11 00:17:19;;;;;;;10.32;3.22;;;;;;;13.75;77.09;101412.75;7372487;19;20384;-70
2022/05/11 00:19:49;;;;;;;7.93;2.75;;;;;;;13.75;76.98;101407.47;7374594;19;20010;-70
2022/05/11 00:22:22;;;;;;;9.43;3.70;;;;;;;13.77;76.50;101405.72;7379388;19;20025;-70
2022/05/11 00:24:55;;;;;;;8.07;3.33;;;;;;;13.75;77.01;101399.56;7375055;19;20511;-70
2022/05/11 00:27:25;;;;;;;8.47;2.77;;;;;;;13.74;77.18;101397.78;7370669;19;20010;-70
2022/05/11 00:29:58;;;;;;;9.52;3.38;;;;;;;13.72;77.89;101397.78;7375557;19;20011;-70
2022/05/11 00:32:28;;;;;;;10.27;3.45;;;;;;;13.71;77.38;101403.91;7371872;19;20006;-71
2022/05/11 00:34:58;;;;;;;13.80;3.50;;;;;;;13.73;77.63;101402.19;7374007;19;20531;-70
2022/05/11 00:37:31;;;;;;;10.15;3.35;;;;;;;13.75;78.20;101394.28;7369954;19;20039;-70
2022/05/11 00:40:04;;;;;;;10.63;3.53;;;;;;;13.73;77.95;101396.91;7371475;19;20395;-70
2022/05/11 00:42:34;;;;;;;10.15;2.95;;;;;;;13.75;77.49;101386.38;7372429;19;20086;-70
2022/05/11 00:45:05;;;;;;;13.48;4.10;;;;;;;13.74;77.76;101397.78;7371945;19;20018;-71
2022/05/11 00:47:41;;;;;;;15.85;3.60;;;;;;;13.73;77.91;101385.50;7371506;19;20014;-70
2022/05/11 00:50:14;;;;;;;10.93;3.42;;;;;;;13.73;78.36;101386.38;7372843;19;20493;-70
2022/05/11 00:52:50;;;;;;;10.00;3.42;;;;;;;13.72;78.41;101387.25;7364117;19;20022;-71
2022/05/11 00:55:27;;;;;;;11.13;3.10;;;;;;;13.68;79.18;101374.91;7370813;19;20014;-70
2022/05/11 00:58:01;;;;;;;10.25;3.28;;;;;;;13.69;78.95;101376.66;7369008;19;20011;-71
2022/05/11 01:00:31;;;;;;;7.60;3.25;;;;;;;13.70;78.95;101369.66;7371040;19;20291;-71
2022/05/11 01:03:09;;;;;;;10.32;3.10;;;;;;;13.67;79.59;101366.97;7375571;19;20511;-71
2022/05/11 01:05:39;;;;;;;9.48;3.05;;;;;;;13.68;79.73;101368.75;7376297;19;20003;-70
2022/05/11 01:08:10;;;;;;;10.98;3.50;;;;;;;13.68;79.55;101361.72;7376420;19;20133;-70
2022/05/11 01:10:44;;;;;;;9.68;3.22;;;;;;;13.66;79.45;101366.09;7372105;19;20039;-70
2022/05/11 01:13:16;;;;;;;9.60;2.92;;;;;;;13.66;79.03;101357.31;7371833;19;20014;-71
2022/05/11 01:15:51;;;;;;;8.88;3.00;;;;;;;13.64;79.16;101348.50;7370463;19;20022;-71
2022/05/11 01:18:24;;;;;;;11.35;3.28;;;;;;;13.62;79.04;101350.25;7369203;19;20014;-71
2022/05/11 01:20:55;;;;;;;10.40;3.53;;;;;;;13.61;79.04;101345.84;7366728;19;20414;-70
2022/05/11 01:23:33;;;;;;;9.43;3.47;;;;;;;13.59;78.92;101344.94;7371577;19;20040;-70
2022/05/11 01:26:06;;;;;;;12.02;4.25;;;;;;;13.58;78.54;101346.69;7370136;19;20038;-70
2022/05/11 01:28:43;;;;;;;13.23;3.85;;;;;;;13.58;78.44;101345.81;7367128;19;20018;-70
2022/05/11 01:31:15;;;;;;;7.88;3.63;;;;;;;13.58;78.66;101346.69;7369429;19;20484;-70
2022/05/11 01:33:49;;;;;;;12.43;3.40;;;;;;;13.59;78.57;101347.56;7372755;19;21073;-70
2022/05/11 01:36:27;;;;;;;12.23;3.83;;;;;;;13.59;78.31;101343.19;7369207;19;20382;-70
2022/05/11 01:39:00;;;;;;;12.38;3.30;;;;;;;13.61;78.72;101340.56;7369126;19;20026;-70
2022/05/11 01:41:35;;;;;;;11.43;3.30;;;;;;;13.66;77.14;101337.09;7371459;19;20006;-71
2022/05/11 01:44:08;;;;;;;11.55;3.72;;;;;;;13.68;76.31;101345.03;7368062;19;20006;-70
2022/05/11 01:46:40;;;;;;;7.97;3.30;;;;;;;13.70;74.39;101330.97;7368806;19;20014;-71
2022/05/11 01:49:11;;;;;;;10.73;3.50;;;;;;;13.71;75.03;101329.22;7377618;19;20025;-70
2022/05/11 01:51:42;;;;;;;8.88;2.70;;;;;;;13.69;74.27;101334.50;7378480;19;20006;-79
2022/05/11 01:54:14;;;;;;;7.90;3.30;;;;;;;13.69;74.27;101330.97;7378343;19;20014;-77
2022/05/11 01:56:46;;;;;;;6.78;2.55;;;;;;;13.68;74.22;101338.00;7375304;19;20015;-77
2022/05/11 01:59:16;;;;;;;11.10;3.45;;;;;;;13.66;74.18;101337.09;7372286;19;20035;-77
2022/05/11 02:01:46;;;;;;;8.45;2.55;;;;;;;13.70;73.33;101330.09;7380294;19;20018;-70
2022/05/11 02:09:44;;;;;;;8.60;2.65;;;;;;;13.70;70.86;101343.28;7380709;19;20014;-71
2022/05/11 02:12:17;;;;;;;6.30;2.88;;;;;;;13.72;70.22;101325.72;7380152;19;20006;-71
2022/05/11 02:14:48;;;;;;;7.45;2.38;;;;;;;13.71;70.30;101322.22;7377098;19;20006;-71
2022/05/11 02:17:20;;;;;;;9.18;2.70;;;;;;;13.73;69.74;101327.50;7373483;19;20040;-71
2022/05/11 02:19:50;;;;;;;6.68;2.63;;;;;;;13.72;70.10;101318.69;7374732;19;20014;-71
2022/05/11 02:22:20;;;;;;;7.28;2.90;;;;;;;13.69;69.66;101317.78;7373806;19;21178;-71
2022/05/11 02:24:50;;;;;;;5.85;2.30;;;;;;;13.74;69.76;101314.31;7378396;19;20010;-71
2022/05/11 02:27:23;;;;;;;9.25;2.80;;;;;;;13.68;69.37;101310.75;7372109;19;20045;-70
2022/05/11 02:29:53;;;;;;;8.75;3.00;;;;;;;13.66;70.13;101305.47;7377282;19;20081;-72
2022/05/11 02:32:23;;;;;;;5.93;2.22;;;;;;;13.63;69.99;101296.66;7375664;19;20416;-70
2022/05/11 02:37:36;;;;;;;9.98;2.45;;;;;;;13.62;69.67;101298.41;7372388;19;20047;-71
2022/05/11 02:40:08;;;;;;;5.28;2.25;;;;;;;13.62;68.92;101303.69;7372371;19;20017;-71
2022/05/11 02:42:40;;;;;;;4.97;2.05;;;;;;;13.65;68.90;101294.91;7370544;19;20017;-71
2022/05/11 02:45:13;;;;;;;8.30;2.40;;;;;;;13.67;68.68;101301.97;7376669;19;20036;-71
2022/05/11 02:47:46;;;;;;;8.35;2.30;;;;;;;13.64;68.69;101290.50;7372062;19;20074;-71
2022/05/11 02:50:21;;;;;;;7.25;2.20;;;;;;;13.63;68.18;101296.66;7373100;19;20002;-70
2022/05/11 02:52:51;;;;;;;9.00;2.55;;;;;;;13.62;68.67;101294.91;7369255;19;20403;-71
2022/05/11 02:55:21;;;;;;;8.32;2.53;;;;;;;13.63;68.36;101296.66;7372024;19;20014;-77
2022/05/11 02:57:55;;;;;;;8.30;2.38;;;;;;;13.67;68.28;101295.81;7375491;19;20018;-71
2022/05/11 03:00:26;;;;;;;10.38;2.33;;;;;;;13.65;68.48;101290.53;7372329;19;20479;-72
2022/05/11 03:02:56;;;;;;;6.65;2.20;;;;;;;13.61;68.51;101286.09;7374947;19;20534;-71
2022/05/11 03:05:26;;;;;;;5.80;2.00;;;;;;;13.61;68.61;101283.47;7374638;19;20043;-71
2022/05/11 03:07:56;;;;;;;6.88;2.38;;;;;;;13.62;68.21;101281.72;7376242;19;20051;-71
2022/05/11 03:10:27;;;;;;;7.47;2.30;;;;;;;13.61;67.71;101283.47;7376854;19;20043;-71
2022/05/11 03:13:01;;;;;;;10.75;2.65;;;;;;;13.64;68.22;101285.25;7375977;19;21104;-71
2022/05/11 03:15:31;;;;;;;8.00;2.28;;;;;;;13.62;68.54;101277.31;7373741;19;20011;-70
2022/05/11 03:18:01;;;;;;;7.07;2.88;;;;;;;13.63;67.92;101280.84;7376320;19;20006;-71
2022/05/11 03:20:31;;;;;;;7.10;2.20;;;;;;;13.63;67.84;101278.22;7368978;19;20041;-77
2022/05/11 03:23:01;;;;;;;7.80;2.60;;;;;;;13.62;68.27;101282.59;7373790;19;20011;-77
2022/05/11 03:25:31;;;;;;;4.88;2.33;;;;;;;13.68;67.23;101279.13;7376540;19;20021;-77
2022/05/11 03:28:04;;;;;;;7.07;2.38;;;;;;;13.65;67.27;101269.44;7370658;19;20467;-77
2022/05/11 03:30:34;;;;;;;11.57;2.50;;;;;;;13.66;67.37;101265.06;7378075;19;20006;-77
2022/05/11 03:35:46;;;;;;;9.63;2.38;;;;;;;13.69;67.20;101265.06;7378044;19;20006;-77
2022/05/11 03:38:16;;;;;;;4.53;1.90;;;;;;;13.72;66.76;101260.72;7371781;19;20021;-78
2022/05/11 03:40:46;;;;;;;5.65;2.00;;;;;;;13.70;66.97;101264.22;7374780;19;20828;-77
2022/05/11 03:43:20;;;;;;;6.00;2.10;;;;;;;13.75;66.77;101271.28;7375211;19;20288;-76
2022/05/11 03:45:50;;;;;;;4.63;1.95;;;;;;;13.70;66.84;101265.09;7373643;19;20017;-77
2022/05/11 03:48:20;;;;;;;8.85;2.30;;;;;;;13.76;66.28;101272.16;7373031;19;20017;-77
2022/05/11 03:50:50;;;;;;;7.25;2.20;;;;;;;13.70;66.93;101257.19;7372215;19;20007;-77
2022/05/11 03:53:20;;;;;;;7.97;2.28;;;;;;;13.67;67.57;101257.16;7365518;19;20010;-76
2022/05/11 03:55:50;;;;;;;4.85;2.10;;;;;;;13.65;67.70;101243.09;7371055;19;20149;-76
2022/05/11 03:58:23;;;;;;;7.95;2.00;;;;;;;13.63;67.30;101246.59;7366671;19;20006;-76
2022/05/11 04:00:57;;;;;;;7.72;2.05;;;;;;;13.63;66.96;101249.22;7368308;19;20025;-78
2022/05/11 04:03:27;;;;;;;8.05;2.00;;;;;;;13.61;67.43;101245.69;7374149;19;20623;-77
2022/05/11 04:05:57;;;;;;;7.43;2.30;;;;;;;13.68;66.33;101255.41;7369027;19;20006;-77
2022/05/11 04:08:28;;;;;;;8.93;2.15;;;;;;;13.63;66.24;101259.75;7370557;19;20387;-78
2022/05/11 04:10:58;;;;;;;7.10;2.20;;;;;;;13.61;66.27;101246.56;7369587;19;20059;-77
2022/05/11 04:13:31;;;;;;;8.45;2.10;;;;;;;13.63;65.71;101247.47;7369482;19;20013;-77
2022/05/11 04:16:01;;;;;;;7.60;1.97;;;;;;;13.63;65.94;101238.69;7373073;19;20007;-77
2022/05/11 04:18:31;;;;;;;7.05;1.95;;;;;;;13.60;66.10;101244.81;7372041;19;20014;-76
2022/05/11 04:21:01;;;;;;;6.22;1.70;;;;;;;13.58;66.27;101238.66;7369860;19;20480;-76
2022/05/11 04:23:32;;;;;;;9.75;2.45;;;;;;;13.58;66.13;101248.31;7370274;19;20010;-77
2022/05/11 04:26:01;;;;;;;7.15;2.60;;;;;;;13.59;66.05;101250.94;7370645;19;20002;-77
2022/05/11 04:28:34;;;;;;;3.83;1.92;;;;;;;13.60;65.26;101249.19;7372736;19;20044;-77
2022/05/11 04:31:05;;;;;;;8.48;2.05;;;;;;;13.59;65.13;101255.34;7369665;19;20010;-76
2022/05/11 04:33:36;;;;;;;4.50;2.00;;;;;;;13.59;65.56;101250.94;7368735;19;20010;-77
2022/05/11 04:36:07;;;;;;;7.40;2.20;;;;;;;13.57;65.67;101257.06;7370892;19;20031;-77
2022/05/11 04:38:37;;;;;;;9.60;2.80;;;;;;;13.54;65.55;101257.06;7369360;19;20578;-76
2022/05/11 04:41:07;;;;;;;6.93;2.00;;;;;;;13.68;65.45;101244.88;7370415;19;20350;-77
2022/05/11 04:43:40;;;;;;;6.13;1.83;;;;;;;13.62;65.55;101255.38;7368858;19;20040;-77
2022/05/11 04:46:10;;;;;;;7.18;2.35;;;;;;;13.61;65.49;101257.13;7369928;19;20031;-77
2022/05/11 04:48:42;;;;;;;10.57;2.10;;;;;;;13.65;65.76;101250.13;7366118;19;20030;-70
2022/05/11 04:51:12;;;;;;;11.85;2.33;;;;;;;13.64;65.56;101245.72;7368488;19;20296;-70
2022/05/11 04:53:44;;;;;;;6.07;1.88;;;;;;;13.64;65.42;101243.97;7363379;19;20018;-72
2022/05/11 04:56:14;;;;;;;10.45;2.20;;;;;;;13.62;65.44;101244.81;7368903;19;20031;-72
2022/05/11 04:58:48;;;;;;;4.55;2.13;;;;;;;13.66;65.65;101249.25;7367621;19;20681;-70
2022/05/11 05:01:18;;;;;;;6.45;2.03;;;;;;;13.63;64.96;101244.81;7368553;19;20579;-71
2022/05/11 05:03:48;;;;;;;12.23;2.13;;;;;;;13.67;64.86;101253.63;7366398;19;20035;-71
2022/05/11 05:06:21;;;;;;;5.68;1.98;;;;;;;13.67;65.25;101248.38;7370745;19;20045;-71
2022/05/11 05:08:52;;;;;;;9.50;2.03;;;;;;;13.76;65.44;101245.81;7367903;19;20334;-71
2022/05/11 05:11:21;;;;;;;8.15;1.92;;;;;;;13.78;64.76;101249.31;7372062;19;20006;-70
2022/05/11 05:13:54;;;;;;;6.13;1.70;;;;;;;13.89;65.49;101249.41;7373689;19;20011;-70
2022/05/11 05:16:26;;;;;;;3.58;1.90;;;;;;;13.87;64.87;101249.38;7369017;19;20017;-70
2022/05/11 05:18:57;;;;;;;7.80;2.30;;;;;;;13.74;64.97;101248.44;7365912;19;20455;-72
2022/05/11 05:21:27;;;;;;;5.93;1.70;;;;;;;13.70;65.58;101251.03;7365401;19;20044;-71
2022/05/11 05:23:57;;;;;;;7.30;1.98;;;;;;;13.56;65.80;101253.56;7373255;19;20018;-71
2022/05/11 05:26:28;;;;;;;9.35;2.00;;;;;;;13.74;65.72;101256.34;7375063;19;20025;-70
2022/05/11 05:31:43;;;;;;;10.45;2.42;;;;;;;14.32;64.01;101264.59;7378141;19;20071;-72
2022/05/11 05:34:16;;;;;;;7.03;2.25;;;;;;;14.53;63.12;101269.09;7375658;19;20006;-71
2022/05/11 05:36:46;;;;;;;13.68;2.33;;;;;;;14.75;61.90;101259.47;7373218;19;20334;-71
2022/05/11 05:39:17;;;;;;;7.82;2.17;;;;;;;14.92;60.95;101251.59;7375660;19;20064;-70
2022/05/11 05:41:47;;;;;;;10.52;2.20;;;;;;;15.30;60.82;101249.88;7376597;19;20606;-71
2022/05/11 05:44:20;;;;;;;6.07;1.70;;;;;;;15.51;60.10;101248.13;7377794;19;20588;-71
2022/05/11 05:46:51;;;;;;;8.00;2.20;;;;;;;15.80;59.12;101251.63;7382789;19;20007;-70
2022/05/11 05:49:21;;;;;;;11.35;2.03;;;;;;;15.98;58.80;101251.59;7379003;19;20002;-71
2022/05/11 05:51:55;;;;;;;4.88;2.28;;;;;;;16.00;57.90;101255.13;7384550;19;20098;-71
2022/05/11 05:54:26;;;;;;;8.55;1.98;;;;;;;15.57;58.54;101249.03;7373107;19;20070;-70
2022/05/11 05:56:56;;;;;;;8.75;2.10;;;;;;;15.38;60.09;101256.06;7373042;19;20137;-70
2022/05/11 05:59:30;;;;;;;6.35;1.85;;;;;;;15.29;60.13;101252.53;7376633;19;20015;-70
2022/05/11 06:02:01;;;;;;;8.02;2.67;;;;;;;15.33;60.42;101255.16;7375422;19;20010;-70
2022/05/11 06:04:31;;;;;;;7.55;1.95;;;;;;;15.11;60.92;101256.03;7378346;19;20016;-71
2022/05/11 06:07:01;;;;;;;14.63;2.40;;;;;;;15.11;60.66;101253.38;7374839;19;20435;-71
2022/05/11 06:09:31;;;;;;;6.95;2.50;;;;;;;15.13;61.06;101245.47;7375469;19;20363;-72
2022/05/11 06:12:01;;;;;;;5.45;1.90;;;;;;;15.13;61.08;101256.91;7375050;19;20014;-71
2022/05/11 06:14:34;;;;;;;7.32;2.00;;;;;;;15.10;60.96;101258.66;7382163;19;20038;-71
2022/05/11 06:17:05;;;;;;;8.95;2.17;;;;;;;14.98;61.24;101252.50;7374567;19;20022;-71
2022/05/11 06:19:35;;;;;;;4.75;2.33;;;;;;;15.10;60.19;101259.56;7372550;19;20011;-70
2022/05/11 06:22:06;;;;;;;8.35;2.00;;;;;;;15.18;60.91;101255.16;7374036;19;20086;-72
2022/05/11 06:24:35;;;;;;;6.15;1.90;;;;;;;15.35;60.09;101258.69;7373280;19;20078;-71
2022/05/11 06:27:06;;;;;;;9.18;2.38;;;;;;;15.26;59.13;101253.41;7376211;19;20029;-71
2022/05/11 06:29:41;;;;;;;8.15;2.40;;;;;;;15.44;59.79;101256.94;7372552;19;20017;-71
2022/05/11 06:32:11;;;;;;;6.10;1.77;;;;;;;15.50;59.71;101247.25;7373927;19;20515;-72
2022/05/11 06:34:41;;;;;;;7.78;1.70;;;;;;;15.91;59.30;101247.19;7371944;19;20011;-71
2022/05/11 06:37:11;;;;;;;12.98;2.15;;;;;;;15.92;59.20;101250.72;7375671;19;20480;-71
2022/05/11 06:39:41;;;;;;;8.48;2.00;;;;;;;16.65;57.91;101250.47;7373175;19;20039;-71
2022/05/11 06:42:12;;;;;;;8.10;2.17;;;;;;;17.03;56.30;101250.25;7372121;19;20478;-71
2022/05/11 06:44:45;;;;;;;9.43;2.20;;;;;;;16.52;56.21;101240.81;7374052;19;20380;-71
2022/05/11 06:47:15;;;;;;;6.53;1.92;;;;;;;16.66;56.74;101246.94;7374612;19;20015;-78
2022/05/11 06:49:45;;;;;;;6.97;1.77;;;;;;;16.39;56.37;101260.28;7373603;19;20021;-78
2022/05/11 06:52:17;;;;;;;6.47;1.83;;;;;;;16.71;56.03;101254.84;7370676;19;20109;-77
2022/05/11 07:00:17;;;;;;;7.47;1.67;;;;;;;17.19;53.46;101243.94;7376327;19;20006;-77
2022/05/11 07:02:47;;;;;;;2.40;1.45;;;;;;;17.11;52.82;101236.94;7377003;19;20445;-78
2022/05/11 07:05:17;;;;;;;6.78;1.55;;;;;;;16.88;54.10;101234.44;7380760;19;20094;-78
2022/05/11 07:07:47;;;;;;;6.53;1.58;;;;;;;16.75;53.90;101225.69;7382625;19;20571;-78
2022/05/11 07:10:17;;;;;;;3.83;1.50;;;;;;;16.79;54.16;101232.72;7381743;19;20022;-77
2022/05/11 07:12:48;;;;;;;5.35;1.40;;;;;;;17.49;52.96;101226.03;7377841;19;20025;-77
2022/05/11 07:15:23;;;;;;;5.65;1.70;;;;;;;17.97;52.61;101236.16;7379003;19;20010;-76
2022/05/11 07:17:59;;;;;;;5.50;1.88;;;;;;;18.08;52.48;101237.81;7383303;19;20011;-79
2022/05/11 07:20:34;;;;;;;6.70;1.80;;;;;;;18.10;51.67;101223.63;7375969;19;20584;-78
2022/05/11 07:23:04;;;;;;;6.63;1.95;;;;;;;18.18;51.82;101223.53;7371946;19;20014;-77
2022/05/11 07:25:35;;;;;;;4.00;1.75;;;;;;;18.50;50.84;101213.41;7375050;19;20040;-76
2022/05/11 07:28:06;;;;;;;4.10;1.70;;;;;;;18.80;49.88;101219.19;7373108;19;20021;-75
2022/05/11 07:30:39;;;;;;;6.82;2.00;;;;;;;18.74;50.70;101221.94;7373499;19;20015;-76
2022/05/11 07:33:10;;;;;;;11.40;2.42;;;;;;;18.70;49.99;101231.75;7374585;19;20273;-75
2022/05/11 07:35:41;;;;;;;8.57;2.83;;;;;;;18.72;50.46;101221.94;7372704;19;20010;-79
2022/05/11 07:38:13;;;;;;;10.60;3.35;;;;;;;18.64;51.46;101223.00;7372607;19;20385;-76
2022/05/11 07:40:43;;;;;;;5.78;2.10;;;;;;;18.86;50.58;101219.97;7373486;19;20011;-73
2022/05/11 07:43:14;;;;;;;9.52;3.20;;;;;;;18.73;50.35;101222.84;7373086;19;20011;-73
2022/05/11 07:45:57;;;;;;;7.93;2.33;;;;;;;18.64;50.44;101223.00;7368895;19;20043;-72
2022/05/11 07:48:30;;;;;;;10.38;2.00;;;;;;;18.60;51.28;101228.34;7371767;19;20002;-72
2022/05/11 07:51:08;;;;;;;12.20;3.25;;;;;;;19.09;49.88;101226.72;7369462;19;20080;-73
2022/05/11 08:06:59;;;;;;;11.60;2.83;;;;;;;19.74;49.04;101232.75;7368533;19;20010;-73
2022/05/11 08:09:30;;;;;;;11.20;3.10;;;;;;;19.67;49.58;101229.31;7367461;19;20055;-73
2022/05/11 08:12:00;;;;;;;8.45;2.70;;;;;;;20.17;49.07;101223.00;7374263;19;20443;-76
2022/05/11 08:14:30;;;;;;;12.15;2.60;;;;;;;19.57;49.12;101238.38;7370815;19;20015;-74
2022/05/11 08:20:24;;;;;;;11.00;5.43;;;;;;;19.27;51.21;101237.94;7376484;19;20022;-74
2022/05/11 08:23:00;;;;;;;19.38;6.43;;;;;;;19.61;51.22;101241.84;7373734;19;20910;-71
2022/05/11 08:25:32;;;;;;;11.63;4.32;;;;;;;19.28;51.65;101244.16;7377295;19;20018;-72
2022/05/11 08:28:18;;;;;;;11.50;3.17;;;;;;;18.76;52.92;101233.41;7374151;19;20583;-72
2022/05/11 08:33:39;;;;;;;12.27;2.85;;;;;;;19.19;52.83;101238.97;7366590;19;20073;-75
2022/05/11 08:36:36;;;;;;;10.38;2.85;;;;;;;19.15;53.04;101243.47;7373398;19;20023;-73
2022/05/11 08:39:09;;;;;;;12.45;2.85;;;;;;;19.41;53.02;101244.81;7375602;19;20726;-73
2022/05/11 08:41:47;;;;;;;9.48;2.60;;;;;;;19.71;52.80;101244.34;7372267;19;20022;-73
2022/05/11 08:44:20;;;;;;;10.55;2.88;;;;;;;19.89;51.68;101241.31;7375060;19;20044;-73
2022/05/11 08:47:06;;;;;;;11.77;3.22;;;;;;;20.21;51.44;101239.81;7376978;19;20031;-73
2022/05/11 08:49:49;;;;;;;14.40;3.58;;;;;;;20.33;51.99;101239.56;7368367;19;20011;-72
2022/05/11 08:52:34;;;;;;;13.68;3.08;;;;;;;19.97;52.73;101237.63;7367465;19;20021;-74
2022/05/11 08:55:12;;;;;;;14.10;2.80;;;;;;;19.74;54.21;101240.75;7373609;19;20475;-74
2022/05/11 08:57:43;;;;;;;10.00;3.47;;;;;;;19.80;53.74;101244.13;7377489;19;20053;-74
2022/05/11 09:00:18;;;;;;;15.45;3.38;;;;;;;20.14;53.50;101238.16;7375532;19;20464;-76
2022/05/11 09:02:52;;;;;;;11.50;3.25;;;;;;;19.84;53.34;101244.97;7374417;19;20968;-75
2022/05/11 09:05:23;;;;;;;;;;;;;;;20.05;53.28;101243.69;7378832;19;20458;-74
2022/05/11 09:07:54;;;;;;;11.25;3.00;;;;;;;20.33;52.62;101238.69;7371893;19;19919;-73
2022/05/11 09:10:33;;;;;;;14.02;3.60;;;;;;;20.54;52.83;101241.81;7377173;19;20011;-73
2022/05/11 09:13:05;;;;;;;12.50;4.05;;;;;;;20.84;53.31;101250.00;7371567;19;20273;-73
2022/05/11 09:15:53;;;;;;;13.20;3.30;;;;;;;21.34;52.06;101245.31;7375722;19;20052;-73
2022/05/11 09:18:24;;;;;;;16.00;4.18;;;;;;;20.04;53.87;101239.25;7375934;19;20074;-73
2022/05/11 09:20:56;;;;;;;14.07;3.92;;;;;;;20.00;53.95;101240.22;7372055;19;20045;-73
2022/05/11 09:23:32;;;;;;;13.23;3.30;;;;;;;20.02;53.45;101244.63;7371951;19;20018;-73
2022/05/11 09:26:08;;;;;;;10.80;3.40;;;;;;;19.40;54.99;101243.94;7376362;19;20015;-73
2022/05/11 09:29:04;;;;;;;16.60;4.90;;;;;;;19.53;54.66;101249.97;7365675;19;20018;-73
2022/05/11 09:31:52;;;;;;;12.95;3.67;;;;;;;20.52;53.93;101245.41;7370931;19;20428;-75
2022/05/11 09:34:30;;;;;;;13.75;4.15;;;;;;;20.50;54.27;101247.22;7373398;19;20021;-74
2022/05/11 09:37:03;;;;;;;18.45;4.28;;;;;;;20.23;53.34;101246.84;7368209;19;20502;-73
2022/05/11 09:39:35;;;;;;;12.10;3.55;;;;;;;20.38;53.41;101247.47;7373135;19;20022;-75
2022/05/11 09:42:26;;;;;;;18.05;4.03;;;;;;;20.50;51.99;101237.44;7376206;19;20252;-77
2022/05/11 09:44:57;;;;;;;13.13;3.70;;;;;;;20.83;52.12;101242.94;7373756;19;20028;-73
2022/05/11 09:47:33;;;;;;;14.80;3.63;;;;;;;20.94;51.62;101242.69;7376027;19;20016;-73
2022/05/11 09:50:22;;;;;;;14.35;4.03;;;;;;;20.55;52.05;101248.00;7377018;19;20491;-75
2022/05/11 09:52:52;;;;;;;41.25;15.88;;;;;;;20.86;51.47;101251.72;7372379;19;20025;-76
2022/05/11 09:55:28;;;;;;;53.38;15.93;;;;;;;20.21;50.86;101239.81;7373234;19;20019;-74
2022/05/11 09:58:06;;;;;;;20.88;5.97;;;;;;;20.81;49.24;101255.41;7372782;19;20041;-74
2022/05/11 10:00:38;;;;;;;11.18;2.80;;;;;;;20.19;49.81;101241.63;7368618;19;20039;-73
2022/05/11 10:03:13;;;;;;;16.25;3.58;;;;;;;20.40;50.95;101243.00;7371137;19;20048;-75
2022/05/11 10:05:45;;;;;;;14.95;3.47;;;;;;;20.75;50.85;101247.59;7373320;19;20750;-75
2022/05/11 10:08:24;;;;;;;15.32;3.58;;;;;;;20.12;51.44;101243.53;7368710;19;20537;-75
2022/05/11 10:10:58;;;;;;;12.55;2.88;;;;;;;20.82;50.98;101238.50;7378857;19;20014;-73
2022/05/11 10:13:37;;;;;;;9.15;2.78;;;;;;;21.27;49.87;101249.91;7378311;19;20015;-74
2022/05/11 10:21:56;;;;;;;11.60;3.15;;;;;;;21.39;47.80;101259.41;7381318;19;20003;-74
2022/05/11 10:24:49;;;;;;;11.60;2.90;;;;;;;21.30;46.66;101248.97;7377073;19;20011;-73
2022/05/11 10:27:24;;;;;;;14.13;3.03;;;;;;;21.30;47.38;101251.63;7381042;19;20010;-73
2022/05/11 10:30:06;;;;;;;12.23;2.80;;;;;;;21.31;47.38;101251.59;7383229;19;20003;-73
2022/05/11 10:32:49;;;;;;;11.32;2.90;;;;;;;21.37;47.29;101248.78;7378910;19;20025;-75
2022/05/11 10:35:22;;;;;;;12.52;3.30;;;;;;;21.04;48.19;101250.44;7373037;19;20018;-72
2022/05/11 10:38:18;;;;;;;10.32;3.05;;;;;;;21.57;46.77;101231.38;7372072;19;20015;-72
2022/05/11 10:40:59;;;;;;;11.40;3.17;;;;;;;21.17;46.22;101235.91;7370011;19;20013;-74
2022/05/11 10:43:41;;;;;;;7.07;2.58;;;;;;;21.11;46.32;101236.03;7377415;19;20440;-75
2022/05/11 10:46:36;;;;;;;8.00;2.22;;;;;;;21.00;44.73;101248.75;7382011;19;20006;-74
2022/05/11 10:49:17;;;;;;;9.70;2.13;;;;;;;20.92;45.71;101239.16;7380449;19;20411;-74
2022/05/11 10:52:00;;;;;;;9.90;2.50;;;;;;;20.99;44.79;101240.78;7383547;19;20022;-74
2022/05/11 10:54:50;;;;;;;7.88;2.40;;;;;;;21.18;44.93;101242.97;7373303;19;20385;-76
2022/05/11 10:57:27;;;;;;;7.22;2.47;;;;;;;20.97;43.56;101234.59;7377995;19;20015;-73
2022/05/11 11:00:18;;;;;;;8.23;2.33;;;;;;;21.05;44.63;101240.66;7372643;19;20019;-75
2022/05/11 11:03:23;;;;;;;9.05;2.60;;;;;;;21.03;44.86;101240.69;7369622;19;20018;-75
2022/05/11 11:09:05;;;;;;;9.35;2.35;;;;;;;21.30;44.88;101248.97;7380553;19;20444;-74
2022/05/11 11:11:41;;;;;;;6.28;2.17;;;;;;;21.19;44.93;101244.72;7373537;19;19998;-72
2022/05/11 11:14:14;;;;;;;15.43;2.83;;;;;;;21.54;44.85;101243.91;7372133;19;20019;-72
2022/05/11 11:17:05;;;;;;;6.72;2.60;;;;;;;21.80;44.04;101243.22;7373623;19;20006;-72
2022/05/11 11:19:36;;;;;;;7.68;2.85;;;;;;;21.87;44.88;101234.09;7374126;19;20011;-72
2022/05/11 11:22:10;;;;;;;10.93;2.83;;;;;;;21.83;44.32;101231.59;7373754;19;20013;-73
2022/05/11 11:24:43;;;;;;;9.60;3.00;;;;;;;21.83;43.86;101221.78;7375403;19;20010;-73
2022/05/11 11:27:13;;;;;;;9.95;2.60;;;;;;;;;;7376164;19;20006;-72
2022/05/11 11:30:24;;;;;;;8.02;2.58;;;;;;;22.15;42.12;101220.00;7375538;19;20018;-73
2022/05/11 11:33:23;;;;;;;8.18;2.20;;;;;;;21.72;41.07;101202.50;7377396;19;20062;-74
2022/05/11 11:35:59;;;;;;;9.02;2.08;;;;;;;22.03;42.05;101213.22;7371448;19;20007;-72
2022/05/11 11:38:31;;;;;;;7.97;2.28;;;;;;;22.12;41.35;101209.41;7376041;19;20397;-75
2022/05/11 11:41:13;;;;;;;10.13;2.40;;;;;;;22.03;41.68;101201.66;7378141;19;20325;-72
2022/05/11 11:43:56;;;;;;;8.13;2.58;;;;;;;22.48;41.00;101203.00;7374490;19;20264;-73
2022/05/11 11:46:38;;;;;;;8.40;2.40;;;;;;;21.83;40.81;101188.88;7376830;19;20015;-73
2022/05/11 11:49:12;;;;;;;6.22;2.30;;;;;;;21.87;41.04;101186.03;7374883;19;20604;-73
2022/05/11 11:52:00;;;;;;;9.63;2.60;;;;;;;22.36;42.23;101183.78;7376539;19;20011;-73
2022/05/11 11:54:48;;;;;;;8.00;2.75;;;;;;;21.98;41.95;101190.19;7374734;19;20074;-73
2022/05/11 11:57:31;;;;;;;11.20;2.92;;;;;;;22.49;42.25;101178.00;7377793;19;20014;-73
2022/05/11 12:00:05;;;;;;;10.20;2.45;;;;;;;21.78;42.48;101174.75;7377786;19;20076;-73
2022/05/11 12:02:44;;;;;;;8.52;2.58;;;;;;;22.40;43.21;101180.09;7374652;19;20022;-72
2022/05/11 12:05:27;;;;;;;12.55;3.60;;;;;;;21.39;45.62;101198.94;7375737;19;20600;-72
2022/05/11 12:16:21;;;;;;;17.00;4.68;;;;;;;22.03;47.25;101185.63;7376739;19;20018;-70
2022/05/11 12:19:08;;;;;;;15.95;4.28;;;;;;;21.81;48.30;101180.00;7377102;19;20427;-73
2022/05/11 12:21:41;;;;;;;13.93;4.15;;;;;;;21.92;48.21;101183.22;7378822;19;20488;-72
2022/05/11 12:24:24;;;;;;;16.03;5.07;;;;;;;21.87;48.68;101187.81;7374932;19;20048;-72
2022/05/11 12:27:00;;;;;;;17.13;5.13;;;;;;;22.26;48.76;101179.63;7376565;19;20014;-73
2022/05/11 12:32:24;;;;;;;14.70;4.43;;;;;;;22.13;48.17;101171.09;7375979;19;20014;-71
2022/05/11 12:35:00;;;;;;;16.17;5.15;;;;;;;22.38;48.66;101171.25;7375652;19;20010;-73
2022/05/11 12:37:32;;;;;;;16.73;4.93;;;;;;;22.29;47.86;101176.88;7376832;19;20011;-73
2022/05/11 12:40:04;;;;;;;15.98;5.05;;;;;;;21.71;49.40;101182.06;7377462;19;20014;-72
2022/05/11 12:42:41;;;;;;;16.77;4.88;;;;;;;21.91;49.20;101184.16;7377674;19;20018;-73
2022/05/11 12:45:14;;;;;;;14.23;4.45;;;;;;;22.39;48.31;101179.22;7377485;19;20051;-73
2022/05/11 12:47:53;;;;;;;17.73;5.57;;;;;;;20.96;51.39;101177.75;7377478;19;20039;-72
2022/05/11 12:50:36;;;;;;;15.32;5.32;;;;;;;21.62;49.92;101171.63;7379128;19;20475;-72
2022/05/11 12:53:26;;;;;;;16.58;4.65;;;;;;;21.31;51.41;101178.69;7368778;19;20022;-71